Terminal Aerodrome Forecast
Issued by NWS Buffalo, NY

Home | Current Version | Previous Version | Text Only | Print | Product List | Glossary On
Versions: 1 2 3 4 5 6 7 8 9 10 11 12 13 14 15 16 17 18 19 20 21 22 23 24 25 26 27 28 29 30 31 32
000
FTUS41 KBUF 021100
TAFBUF
TAF
KBUF 021134Z 0212/0312 24010KT P6SM SCT009 BKN014
     FM021300 24011KT P6SM SCT050
     FM021700 25013KT P6SM VCTS BKN060CB
     FM022200 23011KT P6SM VCSH BKN140
     FM030100 24010KT P6SM BKN130
     FM030900 20004KT P6SM SCT035=

USA.gov is the U.S. government's official web portal to all federal, state and local government web resources and services.